Time;durP1;ratioP1;P1;durP2;ratioP2;P2;SDS_P1;SDS_P2;PMS_P1;PMS_P2;Temp;Humidity;BMP_temperature;BMP_pressure;BME280_temperature;BME280_humidity;BME280_pressure;Samples;Min_cycle;Max_cycle;Signal;HPM_P1;HPM_P2
2021/06/07 00:01:51;;;;;;;15.93;8.82;;;18.90;96.50;;;;;;5012411;28;20044;-86
2021/06/07 00:04:17;;;;;;;16.90;8.23;;;18.90;96.50;;;;;;5012049;28;20018;-87
2021/06/07 00:06:43;;;;;;;15.73;8.90;;;18.90;96.50;;;;;;5013536;28;20026;-87
2021/06/07 00:09:12;;;;;;;17.85;8.75;;;18.90;96.50;;;;;;5017282;28;20026;-87
2021/06/07 00:11:42;;;;;;;18.25;9.05;;;18.90;96.40;;;;;;5013420;28;20034;-87
2021/06/07 00:14:08;;;;;;;16.58;8.77;;;18.90;96.50;;;;;;5013292;28;20021;-87
2021/06/07 00:16:35;;;;;;;12.75;7.43;;;18.80;96.40;;;;;;5012175;28;20394;-88
2021/06/07 00:19:01;;;;;;;12.75;7.68;;;18.90;96.50;;;;;;5011905;28;20421;-88
2021/06/07 00:21:30;;;;;;;18.83;8.35;;;18.80;96.50;;;;;;5013110;28;20014;-87
2021/06/07 00:23:59;;;;;;;13.13;8.48;;;18.90;96.50;;;;;;5013067;28;20504;-87
2021/06/07 00:26:25;;;;;;;12.65;7.50;;;18.90;96.40;;;;;;5013080;28;20031;-88
2021/06/07 00:28:52;;;;;;;13.90;8.00;;;18.80;96.30;;;;;;4995481;28;20030;-88
2021/06/07 00:31:18;;;;;;;12.50;8.00;;;18.80;96.40;;;;;;5012956;28;20045;-87
2021/06/07 00:33:43;;;;;;;14.05;8.27;;;18.90;96.30;;;;;;5012934;28;20030;-87
2021/06/07 00:36:12;;;;;;;12.98;8.07;;;18.80;96.30;;;;;;5013727;28;20033;-87
2021/06/07 00:38:38;;;;;;;16.45;8.25;;;18.80;96.30;;;;;;5013195;28;20014;-87
2021/06/07 00:41:06;;;;;;;14.52;8.43;;;18.80;96.40;;;;;;5018317;28;20386;-87
2021/06/07 00:43:32;;;;;;;14.05;8.43;;;18.80;96.40;;;;;;5012815;28;20022;-87
2021/06/07 00:45:58;;;;;;;14.07;8.27;;;18.80;96.40;;;;;;4995811;28;20109;-87
2021/06/07 00:48:24;;;;;;;15.07;8.45;;;18.80;96.50;;;;;;5012507;28;20084;-87
2021/06/07 00:50:59;;;;;;;14.00;8.50;;;18.70;96.40;;;;;;5012984;28;20520;-87
2021/06/07 00:53:25;;;;;;;14.27;8.77;;;18.80;96.40;;;;;;5013400;28;20418;-87
2021/06/07 00:55:56;;;;;;;14.05;8.82;;;18.70;96.40;;;;;;5012885;28;20037;-87
2021/06/07 00:58:33;;;;;;;16.30;8.02;;;18.80;96.40;;;;;;5013042;28;20393;-87
2021/06/07 01:01:02;;;;;;;15.48;9.10;;;18.70;96.40;;;;;;5012443;28;20018;-87
2021/06/07 01:03:31;;;;;;;15.45;8.32;;;18.70;96.40;;;;;;5012761;28;20018;-87
2021/06/07 01:05:57;;;;;;;15.65;9.45;;;18.70;96.30;;;;;;4995577;28;20034;-86
2021/06/07 01:08:24;;;;;;;16.55;9.00;;;18.70;96.30;;;;;;5018376;28;20088;-87
2021/06/07 01:10:51;;;;;;;16.15;9.43;;;18.70;96.30;;;;;;5012805;28;20036;-87
2021/06/07 01:13:19;;;;;;;15.73;9.27;;;18.60;96.30;;;;;;4995094;28;20458;-87
2021/06/07 01:15:47;;;;;;;17.85;10.05;;;18.60;96.20;;;;;;5015080;28;20049;-87
2021/06/07 01:18:18;;;;;;;16.98;8.88;;;18.50;96.20;;;;;;4999185;28;20045;-86
2021/06/07 01:20:44;;;;;;;14.98;9.38;;;18.50;96.20;;;;;;4999246;28;20401;-87
2021/06/07 01:23:10;;;;;;;16.98;10.35;;;18.50;96.30;;;;;;4999012;28;20022;-86
2021/06/07 01:25:38;;;;;;;16.02;9.55;;;18.40;96.20;;;;;;4998364;28;20037;-86
2021/06/07 01:28:11;;;;;;;17.17;9.55;;;18.40;96.20;;;;;;4998779;28;20112;-86
2021/06/07 01:30:42;;;;;;;18.60;10.25;;;18.40;96.20;;;;;;5009968;28;20049;-86
2021/06/07 01:33:12;;;;;;;18.05;9.85;;;18.40;96.30;;;;;;5014798;28;20470;-86
2021/06/07 01:35:43;;;;;;;18.73;9.85;;;18.40;96.30;;;;;;5015056;28;20029;-86
2021/06/07 01:38:11;;;;;;;16.70;9.82;;;18.40;96.30;;;;;;5015939;28;20017;-86
2021/06/07 01:40:40;;;;;;;18.60;10.93;;;18.30;96.30;;;;;;5021146;28;20120;-85
2021/06/07 01:43:06;;;;;;;17.38;10.52;;;18.30;96.20;;;;;;5015194;28;20013;-85
2021/06/07 01:45:33;;;;;;;17.40;10.05;;;18.30;96.20;;;;;;5015030;28;20080;-85
2021/06/07 01:48:01;;;;;;;20.30;10.48;;;18.30;96.20;;;;;;5015959;28;20485;-86
2021/06/07 01:50:27;;;;;;;18.95;10.60;;;18.30;96.20;;;;;;5014628;28;20440;-86
2021/06/07 01:52:56;;;;;;;18.27;10.43;;;18.30;96.30;;;;;;5015874;28;20116;-88
2021/06/07 01:55:35;;;;;;;20.65;11.00;;;18.30;96.30;;;;;;5014554;28;20453;-88
2021/06/07 01:58:08;;;;;;;18.90;10.23;;;18.30;96.20;;;;;;5014120;28;20053;-88
2021/06/07 02:00:43;;;;;;;18.33;11.15;;;18.30;96.20;;;;;;5014953;28;20037;-85
2021/06/07 02:03:09;;;;;;;21.75;11.77;;;18.20;96.20;;;;;;5014045;28;20024;-85
2021/06/07 02:05:38;;;;;;;21.45;12.40;;;18.20;96.20;;;;;;5013833;28;20033;-84
2021/06/07 02:08:07;;;;;;;23.58;12.30;;;18.20;96.20;;;;;;5015797;28;20520;-85
2021/06/07 02:10:38;;;;;;;23.25;12.23;;;18.20;96.20;;;;;;4997967;28;20046;-85
2021/06/07 02:13:04;;;;;;;22.02;11.82;;;18.20;96.20;;;;;;5014329;28;20378;-85
2021/06/07 02:15:30;;;;;;;20.23;11.80;;;18.20;96.30;;;;;;4997722;28;20497;-85
2021/06/07 02:18:04;;;;;;;22.63;11.57;;;18.20;96.30;;;;;;5014464;28;20038;-85
2021/06/07 02:20:30;;;;;;;22.70;12.90;;;18.20;96.30;;;;;;5014347;28;20033;-85
2021/06/07 02:22:59;;;;;;;21.13;11.95;;;18.20;96.30;;;;;;5013863;28;20281;-86
2021/06/07 02:25:24;;;;;;;25.38;13.15;;;18.30;96.40;;;;;;4998237;28;20401;-86
2021/06/07 02:27:51;;;;;;;21.65;11.85;;;18.20;96.40;;;;;;5012869;28;20033;-86
2021/06/07 02:30:35;;;;;;;20.95;11.63;;;18.30;96.50;;;;;;5013800;28;20072;-86
2021/06/07 02:33:05;;;;;;;22.17;12.50;;;18.30;96.50;;;;;;5009055;28;20488;-86
2021/06/07 02:35:34;;;;;;;26.38;14.10;;;18.30;96.40;;;;;;5013820;28;20489;-86
2021/06/07 02:38:04;;;;;;;23.58;14.20;;;18.30;96.40;;;;;;5013590;28;20029;-87
2021/06/07 02:40:36;;;;;;;27.80;13.13;;;18.30;96.40;;;;;;5007528;28;20108;-86
2021/06/07 02:43:03;;;;;;;23.48;13.15;;;18.30;96.40;;;;;;4997848;28;20755;-86
2021/06/07 02:45:29;;;;;;;22.27;13.18;;;18.30;96.40;;;;;;5014736;28;20021;-86
2021/06/07 02:47:57;;;;;;;24.33;13.38;;;18.30;96.40;;;;;;5013147;28;20144;-86
2021/06/07 02:50:27;;;;;;;23.35;13.30;;;18.30;96.50;;;;;;5013476;28;20034;-88
2021/06/07 02:52:53;;;;;;;22.88;13.40;;;18.30;96.50;;;;;;5013956;28;20137;-88
2021/06/07 02:55:20;;;;;;;24.92;13.50;;;18.40;96.50;;;;;;5014259;28;20065;-88
2021/06/07 02:57:48;;;;;;;25.58;13.75;;;18.30;96.30;;;;;;5014594;28;20042;-88
2021/06/07 03:00:16;;;;;;;23.85;13.57;;;18.30;96.30;;;;;;5014492;28;20097;-88
2021/06/07 03:02:45;;;;;;;27.33;14.25;;;18.30;96.40;;;;;;5013254;28;20397;-87
2021/06/07 03:05:11;;;;;;;26.08;13.48;;;18.40;96.40;;;;;;5015007;28;20022;-86
2021/06/07 03:07:37;;;;;;;25.92;13.75;;;18.30;96.30;;;;;;5014252;28;20076;-86
2021/06/07 03:10:13;;;;;;;25.65;13.98;;;18.20;96.30;;;;;;5014104;28;20398;-86
2021/06/07 03:12:39;;;;;;;23.90;13.32;;;18.30;96.40;;;;;;5013532;28;20026;-87
2021/06/07 03:15:06;;;;;;;27.83;13.50;;;18.30;96.30;;;;;;5014564;28;20522;-87
2021/06/07 03:17:32;;;;;;;27.13;14.52;;;18.30;96.30;;;;;;5014457;28;20025;-87
2021/06/07 03:19:58;;;;;;;24.13;13.55;;;18.30;96.30;;;;;;5014328;28;20022;-87
2021/06/07 03:22:24;;;;;;;26.42;13.63;;;18.20;96.30;;;;;;5013702;28;20026;-88
2021/06/07 03:24:53;;;;;;;21.23;13.50;;;18.30;96.30;;;;;;5013833;28;20034;-87
2021/06/07 03:27:22;;;;;;;24.45;13.65;;;18.20;96.30;;;;;;5014444;28;20018;-87
2021/06/07 03:29:47;;;;;;;22.90;14.00;;;18.30;96.40;;;;;;5013603;28;20046;-87
2021/06/07 03:32:13;;;;;;;23.65;13.98;;;18.20;96.40;;;;;;5013820;28;20022;-87
2021/06/07 03:34:39;;;;;;;25.58;14.07;;;18.30;96.50;;;;;;5013577;28;20026;-87
2021/06/07 03:37:05;;;;;;;22.30;13.27;;;18.30;96.50;;;;;;4996372;28;20462;-87
2021/06/07 03:39:31;;;;;;;22.55;14.05;;;18.40;96.50;;;;;;5013183;28;20026;-87
2021/06/07 03:42:00;;;;;;;22.30;14.25;;;18.40;96.40;;;;;;5013531;28;20068;-87
2021/06/07 03:44:25;;;;;;;22.88;13.70;;;18.30;96.40;;;;;;5013784;28;20021;-87
2021/06/07 03:46:51;;;;;;;21.52;13.48;;;18.30;96.40;;;;;;4995573;28;20029;-86
2021/06/07 03:49:17;;;;;;;21.52;13.25;;;18.40;96.40;;;;;;4996148;28;20433;-86
2021/06/07 03:51:42;;;;;;;18.95;12.93;;;18.40;96.40;;;;;;5012929;28;20482;-86
2021/06/07 03:54:08;;;;;;;19.90;12.93;;;18.40;96.40;;;;;;5013333;28;20022;-86
2021/06/07 03:56:44;;;;;;;19.80;13.80;;;18.40;96.50;;;;;;4995367;28;20068;-87
2021/06/07 03:59:14;;;;;;;19.80;13.45;;;18.50;96.50;;;;;;4995952;28;20112;-87
2021/06/07 04:01:41;;;;;;;21.00;13.68;;;18.60;96.60;;;;;;4995828;28;20029;-86
2021/06/07 04:04:10;;;;;;;19.80;13.20;;;18.60;96.50;;;;;;4995208;28;20025;-86
2021/06/07 04:06:39;;;;;;;17.80;12.38;;;18.60;96.80;;;;;;4995286;28;20521;-86
2021/06/07 04:09:06;;;;;;;23.08;14.85;;;18.60;96.50;;;;;;4980780;28;20026;-86
2021/06/07 04:11:34;;;;;;;19.08;13.82;;;18.60;96.50;;;;;;4995278;28;20125;-86
2021/06/07 04:14:00;;;;;;;20.85;15.07;;;18.70;96.50;;;;;;4972836;28;20069;-86
2021/06/07 04:16:28;;;;;;;20.95;15.23;;;18.70;96.40;;;;;;5012954;28;20475;-86
2021/06/07 04:18:56;;;;;;;26.63;15.15;;;18.60;96.40;;;;;;5013003;28;20471;-86
2021/06/07 04:21:22;;;;;;;19.30;13.70;;;18.60;96.30;;;;;;4995262;28;20389;-87
2021/06/07 04:24:00;;;;;;;19.92;14.55;;;18.70;96.40;;;;;;5012673;28;20029;-87
2021/06/07 04:26:31;;;;;;;19.08;14.40;;;18.70;96.30;;;;;;4997053;28;20065;-86
2021/06/07 04:28:56;;;;;;;19.75;15.05;;;18.70;96.40;;;;;;4979671;28;20026;-84
2021/06/07 04:31:22;;;;;;;21.30;15.63;;;18.70;96.50;;;;;;5000336;28;20037;-84
2021/06/07 04:33:47;;;;;;;19.35;14.60;;;18.80;96.50;;;;;;4995606;28;20121;-84
2021/06/07 04:36:13;;;;;;;22.85;16.55;;;18.80;96.60;;;;;;5013161;28;20026;-83
2021/06/07 04:38:39;;;;;;;21.25;14.50;;;18.90;96.60;;;;;;5013128;28;20030;-83
2021/06/07 04:41:05;;;;;;;22.77;14.80;;;18.90;96.50;;;;;;5012931;28;20032;-83
2021/06/07 04:43:30;;;;;;;21.45;15.85;;;19.00;96.60;;;;;;5012919;28;20025;-83
2021/06/07 04:45:56;;;;;;;20.08;14.85;;;19.10;96.50;;;;;;5012537;28;20034;-83
2021/06/07 04:48:21;;;;;;;21.50;15.63;;;19.00;96.50;;;;;;4995291;28;20061;-83
2021/06/07 04:50:47;;;;;;;21.30;15.23;;;19.00;96.60;;;;;;4995936;28;20493;-84
2021/06/07 04:53:13;;;;;;;20.92;15.85;;;19.20;96.50;;;;;;5017056;28;20026;-83
2021/06/07 04:55:45;;;;;;;21.23;16.08;;;19.10;96.50;;;;;;5022028;28;20370;-83
2021/06/07 04:58:15;;;;;;;21.45;16.23;;;19.20;96.50;;;;;;5001137;28;20533;-83
2021/06/07 05:00:45;;;;;;;20.70;15.50;;;19.30;96.50;;;;;;5003382;28;20026;-83
2021/06/07 05:03:11;;;;;;;22.27;15.73;;;19.40;96.70;;;;;;5016673;28;20076;-83
2021/06/07 05:05:36;;;;;;;23.00;15.35;;;19.40;96.60;;;;;;4998697;28;20478;-83
2021/06/07 05:08:03;;;;;;;22.25;15.40;;;19.50;96.70;;;;;;5017330;28;20026;-83
2021/06/07 05:10:29;;;;;;;21.60;16.02;;;19.60;96.70;;;;;;4999088;28;20046;-83
2021/06/07 05:12:55;;;;;;;21.50;16.38;;;19.60;96.60;;;;;;5024902;28;20026;-83
2021/06/07 05:15:21;;;;;;;22.65;15.98;;;19.70;96.60;;;;;;5000022;28;20034;-82
2021/06/07 05:17:47;;;;;;;23.83;16.48;;;19.80;96.60;;;;;;5017508;28;20034;-82
2021/06/07 05:20:17;;;;;;;22.38;16.38;;;19.90;96.40;;;;;;5016488;28;20080;-83
2021/06/07 05:22:43;;;;;;;20.83;15.93;;;19.80;96.40;;;;;;5016634;28;20026;-83
2021/06/07 05:25:09;;;;;;;24.17;15.90;;;20.00;96.50;;;;;;5015837;28;20544;-83
2021/06/07 05:27:35;;;;;;;24.23;16.88;;;20.00;96.40;;;;;;5016237;28;20037;-83
2021/06/07 05:30:03;;;;;;;22.20;16.17;;;19.90;96.30;;;;;;5020711;28;20054;-83
2021/06/07 05:32:29;;;;;;;22.33;16.45;;;20.00;96.50;;;;;;5021866;28;20075;-83
2021/06/07 05:34:55;;;;;;;21.48;15.80;;;20.10;96.40;;;;;;5016406;28;20104;-85
2021/06/07 05:37:21;;;;;;;20.77;15.57;;;20.20;96.30;;;;;;4998573;28;20030;-83
2021/06/07 05:39:51;;;;;;;21.50;15.65;;;20.20;96.30;;;;;;4998937;28;20458;-87
2021/06/07 05:42:18;;;;;;;24.05;16.23;;;20.20;96.50;;;;;;4998437;28;20025;-84
2021/06/07 05:44:43;;;;;;;22.42;16.88;;;20.30;96.50;;;;;;5015817;28;20049;-84
2021/06/07 05:47:09;;;;;;;21.40;16.77;;;20.40;96.50;;;;;;5000097;28;20481;-83
2021/06/07 05:49:38;;;;;;;21.23;16.95;;;20.40;96.40;;;;;;5015886;28;20026;-83
2021/06/07 05:52:07;;;;;;;22.35;16.73;;;20.50;96.60;;;;;;5015837;28;20117;-83
2021/06/07 05:54:33;;;;;;;22.58;16.40;;;20.60;96.50;;;;;;5015704;28;20584;-83
2021/06/07 05:56:59;;;;;;;23.75;15.50;;;20.80;96.70;;;;;;5001101;28;20045;-83
2021/06/07 05:59:24;;;;;;;21.02;15.93;;;20.90;96.60;;;;;;5014915;28;20528;-83
2021/06/07 06:01:50;;;;;;;22.45;14.90;;;20.90;96.50;;;;;;5015634;28;20096;-82
2021/06/07 06:04:15;;;;;;;21.90;15.10;;;21.00;96.40;;;;;;5015767;28;20064;-84
2021/06/07 06:06:41;;;;;;;18.67;14.98;;;21.00;96.50;;;;;;4998053;28;20087;-83
2021/06/07 06:09:07;;;;;;;21.75;15.73;;;21.10;96.30;;;;;;4998752;28;20489;-82
2021/06/07 06:11:32;;;;;;;20.02;15.35;;;21.10;96.30;;;;;;5015220;28;20384;-82
2021/06/07 06:13:58;;;;;;;22.48;15.82;;;21.10;96.40;;;;;;5015687;28;20490;-83
2021/06/07 06:16:25;;;;;;;22.60;16.65;;;21.20;96.30;;;;;;5014691;28;21026;-83
2021/06/07 06:18:51;;;;;;;22.02;15.52;;;21.20;96.10;;;;;;5015441;28;20393;-82
2021/06/07 06:21:16;;;;;;;20.63;15.52;;;21.20;96.10;;;;;;5014834;28;20025;-83
2021/06/07 06:23:42;;;;;;;20.58;15.10;;;21.10;96.20;;;;;;5015334;28;20403;-83
2021/06/07 06:26:09;;;;;;;20.40;15.30;;;21.20;96.20;;;;;;5008416;28;20100;-83
2021/06/07 06:28:37;;;;;;;26.33;16.65;;;21.20;96.30;;;;;;5015258;28;20022;-83
2021/06/07 06:31:03;;;;;;;22.38;15.82;;;21.30;96.20;;;;;;5014906;28;20042;-83
2021/06/07 06:33:29;;;;;;;20.08;16.10;;;21.40;96.30;;;;;;5014819;28;20037;-82
2021/06/07 06:35:55;;;;;;;21.02;16.08;;;21.40;96.30;;;;;;5015002;28;20431;-83
2021/06/07 06:38:20;;;;;;;20.73;16.25;;;21.40;96.40;;;;;;5014825;28;20030;-83
2021/06/07 06:40:47;;;;;;;20.23;14.93;;;21.50;96.50;;;;;;5016110;28;20038;-84
2021/06/07 06:43:13;;;;;;;24.02;15.57;;;21.60;96.60;;;;;;4997275;28;20040;-83
2021/06/07 06:45:39;;;;;;;19.80;14.32;;;21.80;96.70;;;;;;5014879;28;20049;-84
2021/06/07 06:48:06;;;;;;;21.02;15.80;;;21.80;96.30;;;;;;5014666;28;20014;-84
2021/06/07 06:50:34;;;;;;;19.50;14.95;;;21.90;96.50;;;;;;5014774;28;20034;-83
2021/06/07 06:53:10;;;;;;;20.15;14.85;;;22.00;96.50;;;;;;5014671;28;20025;-83
2021/06/07 06:55:37;;;;;;;18.75;14.75;;;22.20;96.40;;;;;;5014043;28;20478;-83
2021/06/07 06:58:04;;;;;;;20.23;14.10;;;22.20;96.40;;;;;;5014566;28;20034;-83
2021/06/07 07:00:35;;;;;;;19.52;14.07;;;22.30;96.20;;;;;;5014166;28;20026;-83
2021/06/07 07:03:03;;;;;;;19.63;14.75;;;22.30;96.30;;;;;;5014143;28;20030;-83
2021/06/07 07:05:28;;;;;;;22.35;15.93;;;22.30;96.30;;;;;;5014212;28;20034;-83
2021/06/07 07:07:54;;;;;;;20.58;16.48;;;22.50;96.50;;;;;;5015542;28;20424;-82
2021/06/07 07:10:19;;;;;;;21.45;16.55;;;22.50;96.20;;;;;;5014272;28;20042;-83
2021/06/07 07:12:47;;;;;;;22.23;15.55;;;22.50;95.90;;;;;;4996078;28;21109;-83
2021/06/07 07:15:13;;;;;;;18.83;15.05;;;22.50;96.00;;;;;;5014489;28;20029;-82
2021/06/07 07:17:39;;;;;;;19.65;14.43;;;22.60;96.40;;;;;;5013647;28;20041;-82
2021/06/07 07:20:06;;;;;;;18.42;14.15;;;22.80;96.50;;;;;;5013704;28;20033;-82
2021/06/07 07:22:31;;;;;;;18.02;13.48;;;22.90;96.30;;;;;;5014401;28;20100;-83
2021/06/07 07:24:57;;;;;;;19.58;14.82;;;23.10;96.50;;;;;;5013845;28;20434;-82
2021/06/07 07:27:23;;;;;;;19.13;14.45;;;23.20;96.40;;;;;;4996477;28;20029;-81
2021/06/07 07:29:49;;;;;;;18.80;14.50;;;23.30;96.30;;;;;;5013207;28;20429;-83
2021/06/07 07:32:16;;;;;;;19.65;15.23;;;23.60;96.50;;;;;;5013928;28;20030;-83
2021/06/07 07:34:41;;;;;;;17.52;14.05;;;23.60;96.50;;;;;;5013377;28;20022;-82
2021/06/07 07:37:09;;;;;;;18.60;13.88;;;23.80;96.40;;;;;;5013451;28;20613;-82
2021/06/07 07:39:36;;;;;;;22.08;13.70;;;24.00;96.60;;;;;;4996509;28;20084;-82
2021/06/07 07:42:03;;;;;;;16.40;12.98;;;24.30;97.00;;;;;;4996616;28;20030;-82
2021/06/07 07:44:29;;;;;;;17.42;12.48;;;24.50;96.30;;;;;;5014321;28;20045;-83
2021/06/07 07:46:54;;;;;;;16.30;12.38;;;24.50;96.20;;;;;;5012998;28;20034;-83
2021/06/07 07:49:21;;;;;;;17.40;12.13;;;24.50;95.70;;;;;;5013934;28;20038;-83
2021/06/07 07:51:47;;;;;;;19.50;13.40;;;24.50;95.80;;;;;;5013226;28;20034;-83
2021/06/07 07:54:13;;;;;;;17.38;13.02;;;24.60;96.00;;;;;;5013584;28;20474;-82
2021/06/07 07:56:39;;;;;;;17.88;13.70;;;24.70;96.20;;;;;;4996220;28;20041;-82
2021/06/07 07:59:05;;;;;;;16.75;12.13;;;24.70;95.80;;;;;;5013817;28;20055;-83
2021/06/07 08:01:31;;;;;;;15.90;11.88;;;24.70;95.80;;;;;;5013662;28;20030;-83
2021/06/07 08:03:57;;;;;;;16.73;12.57;;;24.70;95.60;;;;;;4998478;28;20466;-83
2021/06/07 08:06:22;;;;;;;18.27;12.55;;;24.70;95.90;;;;;;4995959;28;20026;-83
2021/06/07 08:08:48;;;;;;;16.25;12.45;;;24.70;95.70;;;;;;4996619;28;20030;-83
2021/06/07 08:11:14;;;;;;;17.63;12.55;;;24.90;96.30;;;;;;5013609;28;20034;-83
2021/06/07 08:13:40;;;;;;;16.23;11.50;;;25.20;96.80;;;;;;5013013;28;20037;-83
2021/06/07 08:16:07;;;;;;;14.38;10.63;;;25.30;96.30;;;;;;5007069;28;20482;-83
2021/06/07 08:18:33;;;;;;;16.65;12.27;;;25.60;96.50;;;;;;4995682;28;20022;-83
2021/06/07 08:20:59;;;;;;;15.05;12.00;;;25.60;95.70;;;;;;5013106;28;20030;-82
2021/06/07 08:23:25;;;;;;;14.93;11.45;;;25.70;96.30;;;;;;4995727;28;20022;-82
2021/06/07 08:25:51;;;;;;;13.90;10.35;;;25.80;96.30;;;;;;4978373;28;20033;-83
2021/06/07 08:28:17;;;;;;;15.50;10.65;;;26.00;95.90;;;;;;5013184;28;20532;-82
2021/06/07 08:30:42;;;;;;;12.15;8.63;;;26.00;95.40;;;;;;5012720;28;20076;-82
2021/06/07 08:33:08;;;;;;;13.25;9.90;;;25.90;95.50;;;;;;4995622;28;20036;-82
2021/06/07 08:35:34;;;;;;;12.93;8.88;;;25.90;95.40;;;;;;5012581;28;20038;-82
2021/06/07 08:37:59;;;;;;;12.25;8.82;;;25.90;95.50;;;;;;5012812;28;20022;-82
2021/06/07 08:40:26;;;;;;;12.40;8.65;;;25.80;95.50;;;;;;4995487;28;20108;-83
2021/06/07 08:42:51;;;;;;;13.00;9.25;;;25.90;95.70;;;;;;5013050;28;20091;-82
2021/06/07 08:45:20;;;;;;;12.98;9.30;;;25.90;95.60;;;;;;5017524;28;20481;-82
2021/06/07 08:47:47;;;;;;;13.93;10.23;;;25.60;94.50;;;;;;5012944;28;20425;-82
2021/06/07 08:50:15;;;;;;;13.45;9.77;;;25.50;94.90;;;;;;5016039;28;20034;-82
2021/06/07 08:52:43;;;;;;;15.43;10.18;;;25.30;95.00;;;;;;5013217;28;20026;-82
2021/06/07 08:55:11;;;;;;;15.93;9.18;;;25.20;94.90;;;;;;5012802;28;20022;-82
2021/06/07 08:57:49;;;;;;;15.00;10.23;;;25.10;94.90;;;;;;5001341;28;20505;-82
2021/06/07 09:00:19;;;;;;;12.82;8.75;;;25.00;95.00;;;;;;4995014;28;21449;-83
2021/06/07 09:02:45;;;;;;;12.70;9.02;;;25.10;95.80;;;;;;4998532;28;20030;-83
2021/06/07 09:05:12;;;;;;;12.63;8.43;;;25.30;96.10;;;;;;5012600;28;20029;-83
2021/06/07 09:08:00;;;;;;;12.50;8.30;;;25.50;96.20;;;;;;5013390;28;20014;-83
2021/06/07 09:10:29;;;;;;;13.43;8.93;;;25.60;96.10;;;;;;5013125;28;20489;-83
2021/06/07 09:12:59;;;;;;;14.48;9.45;;;25.70;95.60;;;;;;5012937;28;20081;-83
2021/06/07 09:15:42;;;;;;;12.60;8.73;;;25.80;95.90;;;;;;5013055;28;20026;-83
2021/06/07 09:18:14;;;;;;;12.85;8.82;;;26.00;95.80;;;;;;5012744;28;20105;-84
2021/06/07 09:20:41;;;;;;;14.07;9.70;;;26.00;95.30;;;;;;4995479;28;20068;-83
2021/06/07 09:23:14;;;;;;;12.00;8.77;;;25.90;95.50;;;;;;5017645;28;20018;-83
2021/06/07 09:25:44;;;;;;;11.38;7.80;;;26.00;95.90;;;;;;4992446;28;20137;-83
2021/06/07 09:28:15;;;;;;;11.13;7.75;;;26.20;95.90;;;;;;5012650;28;20104;-83
2021/06/07 09:30:54;;;;;;;11.48;7.95;;;26.30;96.00;;;;;;5011925;28;20952;-83
2021/06/07 09:33:30;;;;;;;11.48;7.47;;;26.40;95.70;;;;;;4994630;28;20088;-83
2021/06/07 09:36:17;;;;;;;10.63;7.22;;;26.50;95.90;;;;;;4995659;28;20432;-83
2021/06/07 09:39:08;;;;;;;10.93;7.60;;;26.70;96.00;;;;;;5012100;28;20377;-84
2021/06/07 09:41:53;;;;;;;11.57;7.28;;;26.70;95.60;;;;;;5001219;28;20113;-82
2021/06/07 09:44:22;;;;;;;10.13;6.57;;;26.90;96.10;;;;;;4997407;28;20532;-83
2021/06/07 09:46:48;;;;;;;10.48;7.05;;;27.10;96.10;;;;;;5015930;28;20030;-83
2021/06/07 09:49:21;;;;;;;11.52;7.18;;;27.40;96.30;;;;;;5017195;28;20100;-82
2021/06/07 09:51:59;;;;;;;11.90;7.60;;;27.60;96.30;;;;;;5016273;28;20429;-83
2021/06/07 09:54:27;;;;;;;11.00;7.63;;;27.60;95.70;;;;;;5015557;28;20532;-83
2021/06/07 09:56:58;;;;;;;10.80;7.63;;;27.70;95.60;;;;;;5016029;28;20033;-83
2021/06/07 09:59:43;;;;;;;11.40;7.85;;;27.80;95.90;;;;;;4998354;28;20025;-88
2021/06/07 10:02:20;;;;;;;12.00;8.25;;;28.00;95.70;;;;;;5015145;28;20463;-83
2021/06/07 10:04:51;;;;;;;12.65;8.60;;;28.00;95.20;;;;;;5015364;28;20363;-83
2021/06/07 10:07:19;;;;;;;12.38;9.15;;;28.00;94.80;;;;;;4982541;28;20516;-83
2021/06/07 10:10:08;;;;;;;11.05;7.65;;;27.90;95.10;;;;;;5015649;28;20014;-83
2021/06/07 10:12:34;;;;;;;11.40;8.05;;;28.00;95.30;;;;;;4981696;28;20077;-84
2021/06/07 10:14:59;;;;;;;11.13;7.68;;;28.00;95.00;;;;;;5015818;28;20026;-83
2021/06/07 10:17:25;;;;;;;11.27;8.20;;;27.90;94.70;;;;;;5015692;28;20022;-84
2021/06/07 10:22:39;;;;;;;11.25;7.75;;;27.80;94.50;;;;;;5015715;28;20034;-84
2021/06/07 10:25:08;;;;;;;11.93;7.90;;;27.90;95.30;;;;;;4997557;28;20382;-84
2021/06/07 10:27:35;;;;;;;10.82;7.72;;;28.00;95.20;;;;;;4998036;28;20114;-83
2021/06/07 10:30:12;;;;;;;11.52;7.70;;;27.80;94.60;;;;;;5015133;28;20061;-84
2021/06/07 10:32:38;;;;;;;11.55;7.85;;;27.80;94.60;;;;;;4997639;28;20114;-84
2021/06/07 10:35:05;;;;;;;11.20;8.15;;;27.80;94.90;;;;;;4997645;28;20111;-83
2021/06/07 10:37:32;;;;;;;12.02;8.55;;;27.80;94.70;;;;;;5015211;28;20382;-83
2021/06/07 10:40:16;;;;;;;11.38;7.40;;;27.80;94.90;;;;;;5015317;28;20428;-84
2021/06/07 10:43:03;;;;;;;12.02;7.25;;;27.90;95.10;;;;;;4998161;28;20022;-84
2021/06/07 10:45:31;;;;;;;11.45;6.82;;;27.90;94.70;;;;;;5015419;28;20021;-84
2021/06/07 10:47:58;;;;;;;11.48;6.93;;;28.00;94.70;;;;;;5014534;28;20022;-84
2021/06/07 10:50:39;;;;;;;9.63;5.72;;;28.00;94.70;;;;;;5016349;28;20028;-84
2021/06/07 10:53:06;;;;;;;10.95;6.45;;;28.10;95.10;;;;;;5016614;28;20389;-84
2021/06/07 10:55:36;;;;;;;9.52;5.72;;;28.40;94.90;;;;;;5015691;28;20045;-83
2021/06/07 10:58:06;;;;;;;9.57;5.38;;;28.40;95.10;;;;;;5014353;28;20029;-83
2021/06/07 11:00:36;;;;;;;7.55;4.35;;;28.50;94.90;;;;;;4997278;28;20541;-83
2021/06/07 11:03:22;;;;;;;7.93;4.22;;;28.60;94.90;;;;;;4996731;28;20434;-83
2021/06/07 11:05:53;;;;;;;5.80;3.28;;;28.70;94.70;;;;;;5013682;28;20025;-83
2021/06/07 11:08:29;;;;;;;7.70;3.40;;;28.60;94.40;;;;;;5000425;28;20041;-83
2021/06/07 11:11:21;;;;;;;5.60;2.95;;;28.60;94.50;;;;;;5014176;28;20034;-83
2021/06/07 11:13:48;;;;;;;7.15;3.05;;;28.70;94.60;;;;;;5011137;28;20034;-83
2021/06/07 11:16:38;;;;;;;7.03;3.38;;;28.90;95.00;;;;;;5014285;28;20046;-83
2021/06/07 11:19:17;;;;;;;7.78;3.33;;;29.10;95.20;;;;;;5013173;28;20097;-83
2021/06/07 11:21:58;;;;;;;7.28;3.95;;;29.20;94.60;;;;;;5013778;28;20033;-84
2021/06/07 11:24:32;;;;;;;7.43;3.97;;;29.30;94.40;;;;;;5014038;28;20021;-84
2021/06/07 11:27:02;;;;;;;7.53;4.13;;;29.40;95.00;;;;;;5015743;28;20030;-83
2021/06/07 11:29:29;;;;;;;6.70;3.63;;;29.90;95.80;;;;;;5004686;28;20041;-84
2021/06/07 11:32:10;;;;;;;7.50;3.53;;;30.50;96.40;;;;;;4997832;28;20042;-84
2021/06/07 11:34:38;;;;;;;6.35;3.40;;;31.00;95.60;;;;;;5020863;28;20029;-84
2021/06/07 11:37:05;;;;;;;6.38;3.40;;;31.30;95.30;;;;;;5018668;28;20051;-84
2021/06/07 11:39:42;;;;;;;5.90;3.42;;;31.60;95.00;;;;;;5013694;28;20465;-85
2021/06/07 11:42:10;;;;;;;6.93;3.30;;;31.60;94.30;;;;;;5015102;28;20032;-84
2021/06/07 11:44:45;;;;;;;6.13;3.30;;;31.70;94.50;;;;;;4996420;28;20030;-84
2021/06/07 11:47:26;;;;;;;6.20;3.28;;;31.70;94.10;;;;;;5013207;28;20529;-84
2021/06/07 11:49:58;;;;;;;6.68;3.40;;;31.80;94.30;;;;;;5013307;28;20488;-84
2021/06/07 11:52:33;;;;;;;5.95;3.10;;;31.90;94.20;;;;;;5007979;28;20113;-84
2021/06/07 11:54:59;;;;;;;6.97;2.95;;;31.90;94.00;;;;;;5011731;28;20014;-84
2021/06/07 11:57:26;;;;;;;5.38;2.92;;;31.70;93.00;;;;;;5011925;28;20033;-83
2021/06/07 11:59:59;;;;;;;7.05;3.10;;;31.30;91.90;;;;;;5013060;28;20033;-83
2021/06/07 12:02:27;;;;;;;5.22;2.90;;;31.00;92.60;;;;;;5012974;28;20013;-83
2021/06/07 12:04:54;;;;;;;5.57;2.70;;;30.60;92.30;;;;;;5013247;28;20520;-84
2021/06/07 12:07:21;;;;;;;6.00;3.20;;;30.30;92.00;;;;;;5016107;28;20096;-84
2021/06/07 12:09:53;;;;;;;6.22;3.35;;;30.10;92.70;;;;;;5013705;28;20038;-84
2021/06/07 12:12:20;;;;;;;8.07;3.50;;;29.90;92.70;;;;;;5013355;28;20061;-83
2021/06/07 12:14:47;;;;;;;6.93;3.65;;;29.70;92.70;;;;;;5012009;28;20100;-83
2021/06/07 12:17:22;;;;;;;8.48;3.72;;;29.50;92.50;;;;;;5012849;28;20488;-83
2021/06/07 12:19:55;;;;;;;7.70;3.80;;;29.20;92.80;;;;;;5012775;28;20026;-83
2021/06/07 12:22:26;;;;;;;5.35;2.80;;;29.00;92.90;;;;;;5012958;28;20037;-83
2021/06/07 12:25:00;;;;;;;5.47;2.72;;;28.80;92.60;;;;;;5014008;28;20494;-83
2021/06/07 12:30:19;;;;;;;4.55;2.67;;;28.50;93.20;;;;;;5014467;28;20048;-83
2021/06/07 12:32:48;;;;;;;5.70;2.65;;;28.60;93.90;;;;;;5012847;28;20026;-82
2021/06/07 12:35:18;;;;;;;4.65;2.50;;;28.70;94.10;;;;;;5013110;28;20105;-83
2021/06/07 12:37:58;;;;;;;4.70;2.60;;;28.70;93.70;;;;;;5011484;28;20113;-82
2021/06/07 12:40:33;;;;;;;5.97;2.60;;;28.70;93.60;;;;;;5013322;28;20021;-82
2021/06/07 12:43:05;;;;;;;4.75;2.70;;;28.60;93.70;;;;;;5012886;28;20034;-83
2021/06/07 12:45:38;;;;;;;5.38;2.80;;;28.70;93.70;;;;;;4990568;28;20165;-82
2021/06/07 12:48:25;;;;;;;5.05;2.70;;;28.70;93.80;;;;;;5013393;28;20049;-82